sensor_id;sensor_type;location;lat;lon;timestamp;pressure;altitude;pressure_sealevel;temperature;humidity
66681;BME280;53575;51.366;12.350;2023-04-24T00:01:35;98985.78;;;13.47;87.09
66681;BME280;53575;51.366;12.350;2023-04-24T00:04:02;98989.28;;;13.46;87.78
66681;BME280;53575;51.366;12.350;2023-04-24T00:06:29;99002.53;;;13.43;88.00
66681;BME280;53575;51.366;12.350;2023-04-24T00:09:03;99007.66;;;13.46;88.93
66681;BME280;53575;51.366;12.350;2023-04-24T00:11:28;99006.31;;;13.36;90.00
66681;BME280;53575;51.366;12.350;2023-04-24T00:13:55;98998.06;;;13.23;91.17
66681;BME280;53575;51.366;12.350;2023-04-24T00:16:21;98998.09;;;13.22;92.25
66681;BME280;53575;51.366;12.350;2023-04-24T00:18:47;99004.41;;;13.16;93.46
66681;BME280;53575;51.366;12.350;2023-04-24T00:21:13;99005.31;;;13.15;94.08
66681;BME280;53575;51.366;12.350;2023-04-24T00:23:39;99005.31;;;13.15;94.66
66681;BME280;53575;51.366;12.350;2023-04-24T00:26:04;99003.84;;;13.08;95.47
66681;BME280;53575;51.366;12.350;2023-04-24T00:28:29;98992.88;;;12.97;96.35
66681;BME280;53575;51.366;12.350;2023-04-24T00:30:55;98987.81;;;12.92;97.89
66681;BME280;53575;51.366;12.350;2023-04-24T00:33:21;98990.41;;;12.93;97.77
66681;BME280;53575;51.366;12.350;2023-04-24T00:35:46;98991.56;;;12.85;98.24
66681;BME280;53575;51.366;12.350;2023-04-24T00:38:12;98993.34;;;12.84;98.81
66681;BME280;53575;51.366;12.350;2023-04-24T00:40:37;98995.22;;;12.81;99.03
66681;BME280;53575;51.366;12.350;2023-04-24T00:43:03;98996.22;;;12.78;99.84
66681;BME280;53575;51.366;12.350;2023-04-24T00:45:28;98995.56;;;12.72;99.81
66681;BME280;53575;51.366;12.350;2023-04-24T00:47:56;98990.44;;;12.68;99.93
66681;BME280;53575;51.366;12.350;2023-04-24T00:50:23;98994.72;;;12.71;99.52
66681;BME280;53575;51.366;12.350;2023-04-24T00:52:49;99005.34;;;12.66;99.43
66681;BME280;53575;51.366;12.350;2023-04-24T00:55:14;99003.88;;;12.59;99.61
66681;BME280;53575;51.366;12.350;2023-04-24T00:57:41;99011.03;;;12.54;98.93
66681;BME280;53575;51.366;12.350;2023-04-24T01:00:06;98997.97;;;12.53;98.91
66681;BME280;53575;51.366;12.350;2023-04-24T01:02:36;99003.97;;;12.56;98.53
66681;BME280;53575;51.366;12.350;2023-04-24T01:05:02;99009.38;;;12.52;98.52
66681;BME280;53575;51.366;12.350;2023-04-24T01:07:28;99009.38;;;12.52;98.55
66681;BME280;53575;51.366;12.350;2023-04-24T01:09:54;99008.91;;;12.40;98.42
66681;BME280;53575;51.366;12.350;2023-04-24T01:12:19;99000.88;;;12.45;98.42
66681;BME280;53575;51.366;12.350;2023-04-24T01:14:45;98999.38;;;12.38;98.55
66681;BME280;53575;51.366;12.350;2023-04-24T01:17:11;98998.34;;;12.42;98.02
66681;BME280;53575;51.366;12.350;2023-04-24T01:19:37;99000.22;;;12.38;97.65
66681;BME280;53575;51.366;12.350;2023-04-24T01:22:08;98997.66;;;12.37;97.10
66681;BME280;53575;51.366;12.350;2023-04-24T01:24:34;99001.94;;;12.39;96.64
66681;BME280;53575;51.366;12.350;2023-04-24T01:26:59;99003.00;;;12.34;95.65
66681;BME280;53575;51.366;12.350;2023-04-24T01:29:26;98991.72;;;12.32;94.77
66681;BME280;53575;51.366;12.350;2023-04-24T01:31:51;98991.72;;;12.32;94.38
66681;BME280;53575;51.366;12.350;2023-04-24T01:34:17;99008.44;;;12.28;94.19
66681;BME280;53575;51.366;12.350;2023-04-24T01:36:43;98997.22;;;12.24;93.87
66681;BME280;53575;51.366;12.350;2023-04-24T01:39:10;98992.19;;;12.18;94.26
66681;BME280;53575;51.366;12.350;2023-04-24T01:41:36;98997.00;;;12.30;93.42
66681;BME280;53575;51.366;12.350;2023-04-24T01:44:02;98994.31;;;12.32;93.08
66681;BME280;53575;51.366;12.350;2023-04-24T01:46:27;98995.25;;;12.31;92.74
66681;BME280;53575;51.366;12.350;2023-04-24T01:48:53;98996.34;;;12.24;92.54
66681;BME280;53575;51.366;12.350;2023-04-24T01:51:18;98997.34;;;12.21;93.16
66681;BME280;53575;51.366;12.350;2023-04-24T01:53:44;98997.34;;;12.21;93.18
66681;BME280;53575;51.366;12.350;2023-04-24T01:56:09;98999.03;;;12.22;92.84
66681;BME280;53575;51.366;12.350;2023-04-24T01:58:35;98995.84;;;12.14;93.29
66681;BME280;53575;51.366;12.350;2023-04-24T02:01:01;98989.53;;;12.19;92.97
66681;BME280;53575;51.366;12.350;2023-04-24T02:03:26;98988.00;;;12.12;93.26
66681;BME280;53575;51.366;12.350;2023-04-24T02:05:52;98985.34;;;12.14;93.02
66681;BME280;53575;51.366;12.350;2023-04-24T02:08:17;98990.03;;;12.04;93.90
66681;BME280;53575;51.366;12.350;2023-04-24T02:10:43;98986.47;;;12.07;93.81
66681;BME280;53575;51.366;12.350;2023-04-24T02:13:09;98987.47;;;12.03;93.64
66681;BME280;53575;51.366;12.350;2023-04-24T02:15:35;98989.03;;;12.08;94.06
66681;BME280;53575;51.366;12.350;2023-04-24T02:18:01;98983.84;;;12.07;93.71
66681;BME280;53575;51.366;12.350;2023-04-24T02:20:26;98985.91;;;11.97;94.45
66681;BME280;53575;51.366;12.350;2023-04-24T02:22:52;99000.81;;;11.95;94.43
66681;BME280;53575;51.366;12.350;2023-04-24T02:25:17;98992.25;;;11.90;94.74
66681;BME280;53575;51.366;12.350;2023-04-24T02:27:43;98988.69;;;11.92;94.98
66681;BME280;53575;51.366;12.350;2023-04-24T02:30:09;98993.31;;;11.83;95.36
66681;BME280;53575;51.366;12.350;2023-04-24T02:32:34;99001.00;;;11.89;95.30
66681;BME280;53575;51.366;12.350;2023-04-24T02:34:59;98989.00;;;11.83;95.37
66681;BME280;53575;51.366;12.350;2023-04-24T02:37:25;98981.94;;;11.85;95.17
66681;BME280;53575;51.366;12.350;2023-04-24T02:39:50;98968.84;;;11.85;95.26
66681;BME280;53575;51.366;12.350;2023-04-24T02:42:15;98971.69;;;11.78;95.39
66681;BME280;53575;51.366;12.350;2023-04-24T02:44:41;98977.25;;;11.67;96.04
66681;BME280;53575;51.366;12.350;2023-04-24T02:47:06;98978.84;;;11.73;95.56
66681;BME280;53575;51.366;12.350;2023-04-24T02:49:32;98973.69;;;11.69;95.93
66681;BME280;53575;51.366;12.350;2023-04-24T02:51:58;98969.22;;;11.73;95.11
66681;BME280;53575;51.366;12.350;2023-04-24T02:54:23;98969.22;;;11.73;94.85
66681;BME280;53575;51.366;12.350;2023-04-24T02:56:48;98971.06;;;11.69;94.91
66681;BME280;53575;51.366;12.350;2023-04-24T02:59:14;98964.91;;;11.70;94.77
66681;BME280;53575;51.366;12.350;2023-04-24T03:01:40;98966.94;;;11.62;94.56
66681;BME280;53575;51.366;12.350;2023-04-24T03:04:05;98969.56;;;11.62;94.57
66681;BME280;53575;51.366;12.350;2023-04-24T03:06:31;98971.38;;;11.60;94.47
66681;BME280;53575;51.366;12.350;2023-04-24T03:08:57;98979.41;;;11.54;94.40
66681;BME280;53575;51.366;12.350;2023-04-24T03:11:23;98979.47;;;11.53;94.54
66681;BME280;53575;51.366;12.350;2023-04-24T03:13:48;98990.69;;;11.56;93.85
66681;BME280;53575;51.366;12.350;2023-04-24T03:16:14;98991.56;;;11.55;93.47
66681;BME280;53575;51.366;12.350;2023-04-24T03:18:39;98990.78;;;11.53;93.26
66681;BME280;53575;51.366;12.350;2023-04-24T03:21:05;98983.69;;;11.57;92.70
66681;BME280;53575;51.366;12.350;2023-04-24T03:23:30;98973.22;;;11.57;92.26
66681;BME280;53575;51.366;12.350;2023-04-24T03:25:56;98975.88;;;11.55;92.28
66681;BME280;53575;51.366;12.350;2023-04-24T03:28:21;98979.50;;;11.51;92.24
66681;BME280;53575;51.366;12.350;2023-04-24T03:30:47;98979.41;;;11.54;91.76
66681;BME280;53575;51.366;12.350;2023-04-24T03:33:12;98976.94;;;11.50;91.93
66681;BME280;53575;51.366;12.350;2023-04-24T03:35:37;98978.72;;;11.49;91.50
66681;BME280;53575;51.366;12.350;2023-04-24T03:38:03;98977.97;;;11.44;91.52
66681;BME280;53575;51.366;12.350;2023-04-24T03:40:29;98974.94;;;11.58;90.57
66681;BME280;53575;51.366;12.350;2023-04-24T03:43:29;98978.50;;;11.55;90.61
66681;BME280;53575;51.366;12.350;2023-04-24T03:45:54;98984.69;;;11.53;90.37
66681;BME280;53575;51.366;12.350;2023-04-24T03:48:20;98981.31;;;11.49;90.67
66681;BME280;53575;51.366;12.350;2023-04-24T03:50:45;98982.09;;;11.53;90.65
66681;BME280;53575;51.366;12.350;2023-04-24T03:53:11;98984.81;;;11.48;90.45
66681;BME280;53575;51.366;12.350;2023-04-24T03:55:36;98979.59;;;11.48;90.51
66681;BME280;53575;51.366;12.350;2023-04-24T03:58:02;98991.06;;;11.44;90.80
66681;BME280;53575;51.366;12.350;2023-04-24T04:00:27;98993.66;;;11.44;91.02
66681;BME280;53575;51.366;12.350;2023-04-24T04:02:52;98985.81;;;11.44;91.65
66681;BME280;53575;51.366;12.350;2023-04-24T04:05:18;98992.25;;;11.34;92.14
66681;BME280;53575;51.366;12.350;2023-04-24T04:07:43;98989.03;;;11.26;92.66
66681;BME280;53575;51.366;12.350;2023-04-24T04:10:09;98995.75;;;11.33;92.75
66681;BME280;53575;51.366;12.350;2023-04-24T04:12:34;98993.50;;;11.20;93.18
66681;BME280;53575;51.366;12.350;2023-04-24T04:15:00;98992.81;;;11.14;93.78
66681;BME280;53575;51.366;12.350;2023-04-24T04:17:25;99002.41;;;11.15;94.31
66681;BME280;53575;51.366;12.350;2023-04-24T04:19:51;98999.81;;;11.13;95.11
66681;BME280;53575;51.366;12.350;2023-04-24T04:22:16;98990.00;;;11.21;94.21
66681;BME280;53575;51.366;12.350;2023-04-24T04:24:42;98996.31;;;11.14;94.70
66681;BME280;53575;51.366;12.350;2023-04-24T04:27:08;98992.50;;;11.25;94.33
66681;BME280;53575;51.366;12.350;2023-04-24T04:29:34;98990.72;;;11.27;94.52
66681;BME280;53575;51.366;12.350;2023-04-24T04:32:00;98987.28;;;11.25;94.40
66681;BME280;53575;51.366;12.350;2023-04-24T04:34:26;98993.13;;;11.33;94.18
66681;BME280;53575;51.366;12.350;2023-04-24T04:36:52;98996.72;;;11.30;95.11
66681;BME280;53575;51.366;12.350;2023-04-24T04:39:17;99005.44;;;11.29;94.41
66681;BME280;53575;51.366;12.350;2023-04-24T04:41:44;99009.75;;;11.32;94.02
66681;BME280;53575;51.366;12.350;2023-04-24T04:44:09;99010.41;;;11.38;94.16
66681;BME280;53575;51.366;12.350;2023-04-24T04:46:35;99000.75;;;11.40;93.91
66681;BME280;53575;51.366;12.350;2023-04-24T04:49:02;99001.72;;;11.38;93.86
66681;BME280;53575;51.366;12.350;2023-04-24T04:51:28;99003.97;;;11.50;93.19
66681;BME280;53575;51.366;12.350;2023-04-24T04:53:53;99005.47;;;11.57;93.15
66681;BME280;53575;51.366;12.350;2023-04-24T04:56:19;99006.41;;;11.56;93.28
66681;BME280;53575;51.366;12.350;2023-04-24T04:58:44;99004.50;;;11.60;92.94
66681;BME280;53575;51.366;12.350;2023-04-24T05:01:10;98992.00;;;11.69;92.59
66681;BME280;53575;51.366;12.350;2023-04-24T05:03:35;98996.31;;;11.70;92.33
66681;BME280;53575;51.366;12.350;2023-04-24T05:06:01;99006.00;;;11.68;92.23
66681;BME280;53575;51.366;12.350;2023-04-24T05:08:27;99002.41;;;11.71;92.08
66681;BME280;53575;51.366;12.350;2023-04-24T05:10:53;99006.63;;;11.77;91.96
66681;BME280;53575;51.366;12.350;2023-04-24T05:13:18;99013.41;;;11.82;92.00
66681;BME280;53575;51.366;12.350;2023-04-24T05:15:44;99015.94;;;11.87;91.78
66681;BME280;53575;51.366;12.350;2023-04-24T05:18:09;99008.78;;;11.90;91.25
66681;BME280;53575;51.366;12.350;2023-04-24T05:20:35;99000.84;;;11.93;92.12
66681;BME280;53575;51.366;12.350;2023-04-24T05:23:00;99008.41;;;12.03;91.05
66681;BME280;53575;51.366;12.350;2023-04-24T05:25:26;99005.47;;;12.13;90.99
66681;BME280;53575;51.366;12.350;2023-04-24T05:27:51;99015.69;;;12.21;90.59
66681;BME280;53575;51.366;12.350;2023-04-24T05:30:18;99017.81;;;12.35;89.71
66681;BME280;53575;51.366;12.350;2023-04-24T05:32:44;99019.66;;;12.33;89.39
66681;BME280;53575;51.366;12.350;2023-04-24T05:35:10;99020.53;;;12.32;90.03
66681;BME280;53575;51.366;12.350;2023-04-24T05:37:35;99017.13;;;12.30;89.75
66681;BME280;53575;51.366;12.350;2023-04-24T05:40:01;99022.47;;;12.27;90.40
66681;BME280;53575;51.366;12.350;2023-04-24T05:42:26;99023.31;;;12.27;90.20
66681;BME280;53575;51.366;12.350;2023-04-24T05:44:52;99020.75;;;12.26;91.05
66681;BME280;53575;51.366;12.350;2023-04-24T05:47:19;99019.25;;;12.18;90.75
66681;BME280;53575;51.366;12.350;2023-04-24T05:49:44;99018.16;;;12.24;91.09
66681;BME280;53575;51.366;12.350;2023-04-24T05:52:10;99017.88;;;12.33;89.88
66681;BME280;53575;51.366;12.350;2023-04-24T05:54:35;99021.19;;;12.38;89.10
66681;BME280;53575;51.366;12.350;2023-04-24T05:57:00;99022.91;;;12.64;88.21
66681;BME280;53575;51.366;12.350;2023-04-24T05:59:29;99017.28;;;12.75;86.93
66681;BME280;53575;51.366;12.350;2023-04-24T06:01:55;99018.16;;;12.74;86.62
66681;BME280;53575;51.366;12.350;2023-04-24T06:04:20;99021.28;;;12.85;85.40
66681;BME280;53575;51.366;12.350;2023-04-24T06:06:46;99022.88;;;12.89;85.31
66681;BME280;53575;51.366;12.350;2023-04-24T06:09:16;99015.75;;;12.93;84.46
66681;BME280;53575;51.366;12.350;2023-04-24T06:11:42;99019.97;;;12.97;83.46
66681;BME280;53575;51.366;12.350;2023-04-24T06:14:07;99017.97;;;13.04;83.16
66681;BME280;53575;51.366;12.350;2023-04-24T06:16:33;99017.97;;;13.04;82.42
66681;BME280;53575;51.366;12.350;2023-04-24T06:18:58;99023.00;;;13.10;82.38
66681;BME280;53575;51.366;12.350;2023-04-24T06:21:24;99022.66;;;13.19;82.52
66681;BME280;53575;51.366;12.350;2023-04-24T06:23:49;99022.06;;;13.36;81.42
66681;BME280;53575;51.366;12.350;2023-04-24T06:26:15;99028.91;;;13.40;81.04
66681;BME280;53575;51.366;12.350;2023-04-24T06:28:41;99028.53;;;13.49;80.59
66681;BME280;53575;51.366;12.350;2023-04-24T06:31:06;99026.22;;;13.41;80.45
66681;BME280;53575;51.366;12.350;2023-04-24T06:33:32;99025.13;;;13.47;80.61
66681;BME280;53575;51.366;12.350;2023-04-24T06:35:57;99025.44;;;13.39;80.74
66681;BME280;53575;51.366;12.350;2023-04-24T06:38:22;99030.72;;;13.38;80.79
66681;BME280;53575;51.366;12.350;2023-04-24T06:40:48;99035.13;;;13.37;80.87
66681;BME280;53575;51.366;12.350;2023-04-24T06:43:13;99034.00;;;13.43;81.57
66681;BME280;53575;51.366;12.350;2023-04-24T06:45:39;99032.84;;;13.52;81.12
66681;BME280;53575;51.366;12.350;2023-04-24T06:48:05;99037.75;;;13.37;81.19
66681;BME280;53575;51.366;12.350;2023-04-24T06:50:30;99036.44;;;13.26;82.43
66681;BME280;53575;51.366;12.350;2023-04-24T06:52:56;99029.94;;;13.36;81.79
66681;BME280;53575;51.366;12.350;2023-04-24T06:55:22;99031.09;;;13.29;82.88
66681;BME280;53575;51.366;12.350;2023-04-24T06:57:48;99025.91;;;13.49;81.87
66681;BME280;53575;51.366;12.350;2023-04-24T07:00:13;99028.25;;;13.57;81.55
66681;BME280;53575;51.366;12.350;2023-04-24T07:02:39;99028.22;;;13.58;81.12
66681;BME280;53575;51.366;12.350;2023-04-24T07:05:04;99022.50;;;13.69;80.99
66681;BME280;53575;51.366;12.350;2023-04-24T07:07:30;99035.81;;;13.64;80.68
66681;BME280;53575;51.366;12.350;2023-04-24T07:09:56;99032.22;;;13.67;81.07
66681;BME280;53575;51.366;12.350;2023-04-24T07:12:22;99034.75;;;13.70;81.14
66681;BME280;53575;51.366;12.350;2023-04-24T07:14:48;99035.34;;;13.77;81.58
66681;BME280;53575;51.366;12.350;2023-04-24T07:17:13;99033.56;;;13.77;80.68
66681;BME280;53575;51.366;12.350;2023-04-24T07:19:39;99033.25;;;13.85;80.27
66681;BME280;53575;51.366;12.350;2023-04-24T07:22:05;99031.06;;;13.96;80.14
66681;BME280;53575;51.366;12.350;2023-04-24T07:24:31;99033.03;;;13.91;79.73
66681;BME280;53575;51.366;12.350;2023-04-24T07:26:59;99030.41;;;13.91;79.82
66681;BME280;53575;51.366;12.350;2023-04-24T07:29:26;99026.91;;;13.90;79.81
66681;BME280;53575;51.366;12.350;2023-04-24T07:31:52;99023.59;;;14.07;79.74
66681;BME280;53575;51.366;12.350;2023-04-24T07:34:19;99019.47;;;14.22;78.97
66681;BME280;53575;51.366;12.350;2023-04-24T07:36:45;99023.25;;;14.37;78.40
66681;BME280;53575;51.366;12.350;2023-04-24T07:39:11;99026.69;;;14.39;77.46
66681;BME280;53575;51.366;12.350;2023-04-24T07:41:36;99028.50;;;14.37;77.60
66681;BME280;53575;51.366;12.350;2023-04-24T07:44:02;99023.13;;;14.60;76.78
66681;BME280;53575;51.366;12.350;2023-04-24T07:46:27;99022.75;;;14.49;75.83
66681;BME280;53575;51.366;12.350;2023-04-24T07:48:55;99023.25;;;14.37;76.45
66681;BME280;53575;51.366;12.350;2023-04-24T07:51:20;99028.38;;;14.40;75.91
66681;BME280;53575;51.366;12.350;2023-04-24T07:53:46;99027.97;;;14.51;75.60
66681;BME280;53575;51.366;12.350;2023-04-24T07:56:11;99026.94;;;14.53;75.72
66681;BME280;53575;51.366;12.350;2023-04-24T07:58:37;99026.06;;;14.54;75.47
66681;BME280;53575;51.366;12.350;2023-04-24T08:01:02;99024.31;;;14.53;75.73
66681;BME280;53575;51.366;12.350;2023-04-24T08:03:28;99022.03;;;14.66;75.07
66681;BME280;53575;51.366;12.350;2023-04-24T08:05:53;99026.06;;;14.54;72.68
66681;BME280;53575;51.366;12.350;2023-04-24T08:08:21;99025.66;;;14.42;72.03
66681;BME280;53575;51.366;12.350;2023-04-24T08:10:47;99035.84;;;14.51;71.85
66681;BME280;53575;51.366;12.350;2023-04-24T08:13:13;99029.00;;;14.67;70.94
66681;BME280;53575;51.366;12.350;2023-04-24T08:15:38;99037.94;;;14.63;70.33
66681;BME280;53575;51.366;12.350;2023-04-24T08:18:03;99036.34;;;14.79;70.09
66681;BME280;53575;51.366;12.350;2023-04-24T08:20:29;99036.03;;;15.06;68.49
66681;BME280;53575;51.366;12.350;2023-04-24T08:22:55;99028.88;;;15.09;68.21
66681;BME280;53575;51.366;12.350;2023-04-24T08:25:21;99039.63;;;15.24;67.38
66681;BME280;53575;51.366;12.350;2023-04-24T08:27:48;99045.25;;;15.35;66.70
66681;BME280;53575;51.366;12.350;2023-04-24T08:30:14;99050.53;;;15.35;65.62
66681;BME280;53575;51.366;12.350;2023-04-24T08:32:39;99034.66;;;15.55;65.40
66681;BME280;53575;51.366;12.350;2023-04-24T08:35:06;99038.59;;;15.66;64.69
66681;BME280;53575;51.366;12.350;2023-04-24T08:37:35;99047.13;;;15.71;64.39
66681;BME280;53575;51.366;12.350;2023-04-24T08:40:28;99042.28;;;15.43;63.77
66681;BME280;53575;51.366;12.350;2023-04-24T08:42:55;99055.78;;;15.16;63.12
66681;BME280;53575;51.366;12.350;2023-04-24T08:45:23;99051.91;;;15.04;63.31
66681;BME280;53575;51.366;12.350;2023-04-24T08:47:49;99056.75;;;15.14;63.32
66681;BME280;53575;51.366;12.350;2023-04-24T08:50:15;99045.84;;;15.42;63.10
66681;BME280;53575;51.366;12.350;2023-04-24T08:52:42;99055.16;;;15.68;62.42
66681;BME280;53575;51.366;12.350;2023-04-24T08:55:08;99049.81;;;15.50;62.74
66681;BME280;53575;51.366;12.350;2023-04-24T08:57:35;99057.41;;;15.56;63.24
66681;BME280;53575;51.366;12.350;2023-04-24T09:00:01;99052.53;;;15.68;62.49
66681;BME280;53575;51.366;12.350;2023-04-24T09:02:27;99068.91;;;15.74;62.38
66681;BME280;53575;51.366;12.350;2023-04-24T09:04:53;99077.84;;;15.51;61.78
66681;BME280;53575;51.366;12.350;2023-04-24T09:07:19;99066.94;;;15.21;63.59
66681;BME280;53575;51.366;12.350;2023-04-24T09:09:47;99067.94;;;15.19;63.97
66681;BME280;53575;51.366;12.350;2023-04-24T09:12:13;99069.28;;;15.08;64.11
66681;BME280;53575;51.366;12.350;2023-04-24T09:14:39;99070.91;;;15.11;64.07
66681;BME280;53575;51.366;12.350;2023-04-24T09:17:07;99076.81;;;15.16;63.76
66681;BME280;53575;51.366;12.350;2023-04-24T09:19:33;99074.84;;;15.21;62.80
66681;BME280;53575;51.366;12.350;2023-04-24T09:21:58;99082.38;;;15.29;63.18
66681;BME280;53575;51.366;12.350;2023-04-24T09:24:24;99077.91;;;15.31;62.82
66681;BME280;53575;51.366;12.350;2023-04-24T09:26:56;99084.63;;;15.38;62.46
66681;BME280;53575;51.366;12.350;2023-04-24T09:29:27;99080.72;;;15.07;63.78
66681;BME280;53575;51.366;12.350;2023-04-24T09:31:53;99084.72;;;15.16;64.15
66681;BME280;53575;51.366;12.350;2023-04-24T09:34:26;99085.91;;;15.09;64.58
66681;BME280;53575;51.366;12.350;2023-04-24T09:36:52;99098.09;;;15.11;64.46
66681;BME280;53575;51.366;12.350;2023-04-24T09:39:18;99090.31;;;15.08;65.02
66681;BME280;53575;51.366;12.350;2023-04-24T09:41:54;99095.88;;;15.42;63.96
66681;BME280;53575;51.366;12.350;2023-04-24T09:44:24;99096.53;;;15.66;63.34
66681;BME280;53575;51.366;12.350;2023-04-24T09:46:51;99089.56;;;15.83;63.21
66681;BME280;53575;51.366;12.350;2023-04-24T09:49:28;99089.47;;;15.85;62.64
66681;BME280;53575;51.366;12.350;2023-04-24T09:52:07;99088.41;;;15.70;59.97
66681;BME280;53575;51.366;12.350;2023-04-24T09:54:32;99090.03;;;15.54;58.65
66681;BME280;53575;51.366;12.350;2023-04-24T09:56:58;99084.09;;;15.49;57.92
66681;BME280;53575;51.366;12.350;2023-04-24T09:59:25;99090.78;;;15.56;57.53
66681;BME280;53575;51.366;12.350;2023-04-24T10:01:50;99089.03;;;15.75;57.10
66681;BME280;53575;51.366;12.350;2023-04-24T10:04:25;99084.22;;;15.85;57.73
66681;BME280;53575;51.366;12.350;2023-04-24T10:06:52;99083.06;;;15.91;57.51
66681;BME280;53575;51.366;12.350;2023-04-24T10:09:19;99090.59;;;15.79;57.42
66681;BME280;53575;51.366;12.350;2023-04-24T10:11:50;99091.28;;;15.64;54.59
66681;BME280;53575;51.366;12.350;2023-04-24T10:14:18;99080.00;;;15.62;53.37
66681;BME280;53575;51.366;12.350;2023-04-24T10:16:44;99090.91;;;15.73;53.55
66681;BME280;53575;51.366;12.350;2023-04-24T10:19:12;99090.28;;;15.68;53.16
66681;BME280;53575;51.366;12.350;2023-04-24T10:21:40;99088.63;;;15.84;52.66
66681;BME280;53575;51.366;12.350;2023-04-24T10:24:08;99081.81;;;16.17;51.67
66681;BME280;53575;51.366;12.350;2023-04-24T10:26:34;99079.41;;;16.12;51.85
66681;BME280;53575;51.366;12.350;2023-04-24T10:29:01;99086.19;;;15.99;50.62
66681;BME280;53575;51.366;12.350;2023-04-24T10:31:27;99085.53;;;15.94;51.71
66681;BME280;53575;51.366;12.350;2023-04-24T10:33:56;99097.50;;;16.01;51.59
66681;BME280;53575;51.366;12.350;2023-04-24T10:36:24;99141.00;;;15.72;51.78
66681;BME280;53575;51.366;12.350;2023-04-24T10:38:52;99113.38;;;15.62;53.04
66681;BME280;53575;51.366;12.350;2023-04-24T10:41:20;99117.72;;;15.63;51.95
66681;BME280;53575;51.366;12.350;2023-04-24T10:46:32;99121.03;;;15.47;50.56
66681;BME280;53575;51.366;12.350;2023-04-24T10:48:58;99112.88;;;15.53;49.32
66681;BME280;53575;51.366;12.350;2023-04-24T10:51:26;99109.44;;;15.51;49.24
66681;BME280;53575;51.366;12.350;2023-04-24T10:54:28;99140.38;;;15.67;48.82
66681;BME280;53575;51.366;12.350;2023-04-24T10:59:49;99143.00;;;15.67;48.42
66681;BME280;53575;51.366;12.350;2023-04-24T11:02:16;99117.47;;;15.88;48.11
66681;BME280;53575;51.366;12.350;2023-04-24T11:04:42;99108.97;;;16.19;46.87
66681;BME280;53575;51.366;12.350;2023-04-24T11:07:11;99110.53;;;16.40;46.25
66681;BME280;53575;51.366;12.350;2023-04-24T11:09:37;99126.75;;;16.67;45.39
66681;BME280;53575;51.366;12.350;2023-04-24T11:12:12;99127.16;;;16.60;44.63
66681;BME280;53575;51.366;12.350;2023-04-24T11:17:33;99150.63;;;16.47;44.64
66681;BME280;53575;51.366;12.350;2023-04-24T11:20:08;99146.84;;;16.16;44.27
66681;BME280;53575;51.366;12.350;2023-04-24T11:22:38;99122.94;;;16.38;45.04
66681;BME280;53575;51.366;12.350;2023-04-24T11:25:09;99126.84;;;16.66;44.23
66681;BME280;53575;51.366;12.350;2023-04-24T11:27:44;99118.34;;;16.95;42.64
66681;BME280;53575;51.366;12.350;2023-04-24T11:30:20;99130.91;;;17.08;41.88
66681;BME280;53575;51.366;12.350;2023-04-24T11:33:28;99126.25;;;17.13;41.19
66681;BME280;53575;51.366;12.350;2023-04-24T11:35:53;99130.97;;;16.71;41.21
66681;BME280;53575;51.366;12.350;2023-04-24T11:38:19;99125.44;;;16.58;41.36
66681;BME280;53575;51.366;12.350;2023-04-24T11:40:45;99136.97;;;16.39;42.02
66681;BME280;53575;51.366;12.350;2023-04-24T11:43:11;99148.97;;;16.27;41.88
66681;BME280;53575;51.366;12.350;2023-04-24T11:45:37;99141.81;;;15.93;43.15
66681;BME280;53575;51.366;12.350;2023-04-24T11:48:03;99157.53;;;15.75;42.11
66681;BME280;53575;51.366;12.350;2023-04-24T11:50:28;99146.94;;;15.96;42.79
66681;BME280;53575;51.366;12.350;2023-04-24T11:52:54;99148.09;;;16.45;42.26
66681;BME280;53575;51.366;12.350;2023-04-24T11:57:49;99151.53;;;16.65;41.58
66681;BME280;53575;51.366;12.350;2023-04-24T12:00:21;99145.84;;;16.55;42.08
66681;BME280;53575;51.366;12.350;2023-04-24T12:02:48;99144.31;;;16.32;42.48
66681;BME280;53575;51.366;12.350;2023-04-24T12:05:25;99157.81;;;16.26;42.74
66681;BME280;53575;51.366;12.350;2023-04-24T12:07:51;99154.38;;;16.24;42.72
66681;BME280;53575;51.366;12.350;2023-04-24T12:10:25;99149.38;;;16.37;41.87
66681;BME280;53575;51.366;12.350;2023-04-24T12:12:52;99151.91;;;16.57;41.96
66681;BME280;53575;51.366;12.350;2023-04-24T12:15:21;99137.06;;;16.91;41.99
66681;BME280;53575;51.366;12.350;2023-04-24T12:17:47;99157.69;;;17.00;41.36
66681;BME280;53575;51.366;12.350;2023-04-24T12:20:13;99158.69;;;16.97;40.73
66681;BME280;53575;51.366;12.350;2023-04-24T12:22:47;99154.13;;;17.01;40.04
66681;BME280;53575;51.366;12.350;2023-04-24T12:25:15;99155.44;;;16.92;40.73
66681;BME280;53575;51.366;12.350;2023-04-24T12:27:41;99145.31;;;16.66;40.99
66681;BME280;53575;51.366;12.350;2023-04-24T12:30:11;99137.28;;;17.03;41.01
66681;BME280;53575;51.366;12.350;2023-04-24T12:32:45;99139.53;;;17.11;41.52
66681;BME280;53575;51.366;12.350;2023-04-24T12:35:10;99138.44;;;16.98;42.15
66681;BME280;53575;51.366;12.350;2023-04-24T12:37:36;99143.63;;;17.17;42.42
66681;BME280;53575;51.366;12.350;2023-04-24T12:40:08;99135.41;;;17.23;42.16
66681;BME280;53575;51.366;12.350;2023-04-24T12:42:35;99140.94;;;17.51;40.12
66681;BME280;53575;51.366;12.350;2023-04-24T12:45:04;99142.81;;;17.83;38.93
66681;BME280;53575;51.366;12.350;2023-04-24T12:47:31;99149.28;;;17.09;39.00
66681;BME280;53575;51.366;12.350;2023-04-24T12:49:57;99153.75;;;16.91;39.13
66681;BME280;53575;51.366;12.350;2023-04-24T12:52:23;99138.13;;;17.04;39.30
66681;BME280;53575;51.366;12.350;2023-04-24T12:54:50;99142.72;;;17.00;39.36
66681;BME280;53575;51.366;12.350;2023-04-24T12:57:17;99130.16;;;16.88;39.02
66681;BME280;53575;51.366;12.350;2023-04-24T12:59:43;99128.44;;;17.04;39.28